NOAA/GLERL Met Station at Muskegon, MI

Previous 5 days (top of hour only)
See also Previous 3 Hours (2 minute increments)
Jump down to Data
Switch to [English][Metric]
Zoom: Click and drag, Pan: shift-click and drag, Unzoom: double-click, Unzoom All





Zoom: Click and drag, Pan: shift-click and drag, Unzoom: double-click, Unzoom All

Note: Speed = mean wind during 2-minute period at top of hour,
Gust = max wind during 2-minute period at top of hour,
Peak = max wind during entire hour.
• See also 5-day windrose plot

NOAA/GLERL Met Station at Muskegon, MI

Previous 5 days (top of hour only)
See also Previous 3 Hours (2 minute increments)
Jump up to Graphs
Switch to [English][Metric]
                  Wind  Wind  Wind   Air   Dew   Rel     Sta   PAR
                   Spd   Gst   Dir  Temp    Pt   Hum    Pres uE/m2/
YYYY-MM-DD   EST   kts   kts   deg     F     F     %   in Hg   sec
2016-12-07 03:00  20.0  21.8   302  33.3  25.5  72.9   29.28     2
2016-12-07 02:00  19.8  22.0   292  33.3  25.4  72.5   29.26     2
2016-12-07 01:00  22.4  27.0   293  33.1  26.1  75.3   29.25     2
2016-12-07 00:00  25.9  29.5   288  32.9  26.7  77.7   29.24     2
2016-12-06 23:00  26.2  28.4   282  33.6  27.5  78.0   29.22     2
2016-12-06 22:00  25.9  30.5   290  35.1  27.2  72.8   29.20     2
2016-12-06 21:00  26.2  29.0   292  37.6  27.9  67.7   29.16     2
2016-12-06 20:00  21.4  24.1   294  39.2  30.4  70.4   29.15     2
2016-12-06 19:00  21.0  23.1   289  39.9  31.3  71.0   29.13     2
2016-12-06 18:00  20.2  22.4   286  40.6  33.6  75.8   29.11     2
2016-12-06 17:00  23.1  26.8   293  41.2  34.6  77.2   29.11    16
2016-12-06 16:00  14.6  16.1   261  40.5  34.1  77.7   29.09    43
2016-12-06 15:00  11.1  13.6   192  42.3  32.7  68.5   29.07   779
2016-12-06 14:00   5.4   8.9   159  41.4  31.4  67.5   29.09  1635
2016-12-06 13:00   8.7  11.1   139  41.0  31.2  67.7   29.11  1709
2016-12-06 12:00   7.6   9.3   128  38.3  30.9  74.5   29.14  1277
2016-12-06 11:00   8.4  13.4   116  35.6  30.7  82.1   29.15   847
2016-12-06 10:00   8.2  12.1   108  33.8  29.8  85.0   29.17   239
2016-12-06 09:00   7.0   9.3   115  33.3  29.8  86.9   29.21   190
2016-12-06 08:00  12.2  15.0   128  31.3  28.0  87.5   29.22     6
2016-12-06 07:00   8.4  11.1   121  30.7  27.7  88.5   29.24     2
2016-12-06 06:00   9.7  11.7   119  30.6  27.7  88.9   29.25     2
2016-12-06 05:00   9.3  12.1   115  31.3  28.3  88.7   29.27     2
2016-12-06 04:00   7.0   8.4   123  31.3  28.4  89.0   29.30     2
2016-12-06 03:00   4.9   6.2   137  30.9  28.1  89.0   29.32     2
2016-12-06 02:00  12.4  15.4   167  31.8  28.3  86.8   29.33     2
2016-12-06 01:00   8.0  10.1   133  32.4  28.7  86.3   29.33     2
2016-12-06 00:00  12.1  15.6   118  32.9  29.0  85.4   29.34     2
2016-12-05 23:00   8.0   9.5   127  33.3  29.0  84.2   29.37     2
2016-12-05 22:00   5.1   7.4   158  33.6  29.0  82.9   29.39     2
2016-12-05 21:00   8.7   9.9   147  34.5  29.4  81.4   29.38     2
2016-12-05 20:00   5.4   7.4   139  35.8  30.2  79.9   29.38     2
2016-12-05 19:00  12.2  14.8   202  38.5  33.8  83.0   29.39     2
2016-12-05 18:00  16.1  18.7   213  39.6  34.5  82.0   29.39     2
2016-12-05 17:00  18.9  20.2   204  40.5  34.9  80.2   29.39    12
2016-12-05 16:00  19.1  20.4   229  41.7  34.8  76.2   29.37   195
2016-12-05 15:00  15.9  18.5   232  41.2  34.2  76.0   29.35   540
2016-12-05 14:00  13.6  15.9   244  40.8  33.6  75.1   29.37  1670
2016-12-05 13:00  10.5  12.4   241  39.7  32.9  76.1   29.36   679
2016-12-05 12:00  10.3  12.1   251  40.1  33.0  75.4   29.37  1936
2016-12-05 11:00  11.9  13.6   277  39.7  32.5  74.9   29.37   709
2016-12-05 10:00  12.1  14.0   294  39.6  32.4  75.4   29.35   483
2016-12-05 09:00  12.2  13.6   304  39.2  31.8  74.6   29.35   117
2016-12-05 08:00  16.1  19.2   297  39.2  32.2  75.6   29.33     7
2016-12-05 07:00  19.2  21.8   291  39.4  33.1  77.9   29.33     2
2016-12-05 06:00  19.1  21.2   306  39.2  34.0  81.4   29.32     2
2016-12-05 05:00  20.8  22.4   288  39.0  33.7  80.9   29.29     2
2016-12-05 04:00  21.0  22.7   294  38.5  33.4  81.7   29.27     2
2016-12-05 03:00  21.6  25.5   298  37.8  32.8  82.0   29.26     2
2016-12-05 02:00  22.4  25.9   300  39.2  34.1  81.8   29.24     2
2016-12-05 01:00  21.2  24.3   286  39.4  33.9  80.5   29.21     2
2016-12-05 00:00  15.9  19.2   294  39.0  34.2  82.7   29.20     2
2016-12-04 23:00  17.5  19.1   279  38.8  35.0  86.0   29.19     2
2016-12-04 22:00  14.6  15.9   235  38.1  34.4  86.3   29.21     2
2016-12-04 21:00  10.9  13.6   165  32.9  32.1  97.0   29.22     2
2016-12-04 20:00   8.9  11.7   157  32.0  31.2  96.9   29.25     2
2016-12-04 19:00   3.7   4.7   159  32.0  31.1  96.6   29.27     2
2016-12-04 18:00   5.8   8.4   129  32.0  31.1  96.3   29.27     2
2016-12-04 17:00   8.7  11.5   128  32.0  31.0  96.1   29.30     7
2016-12-04 16:00   6.6   9.1   139  32.2  30.9  95.1   29.33    67
2016-12-04 15:00   8.7  10.3   143  32.5  30.1  90.5   29.35    97
2016-12-04 14:00  10.5  13.2   152  36.3  25.7  65.1   29.40   138
2016-12-04 13:00   5.1   7.4   152  36.5  25.0  62.8   29.41   248
2016-12-04 12:00  10.5  12.8   172  36.3  25.2  63.7   29.46   281
2016-12-04 11:00  10.1  14.2   157  35.2  24.7  65.1   29.51   143
2016-12-04 10:00  11.9  15.0   170  35.2  24.3  64.0   29.53    63
2016-12-04 09:00   7.4  10.5   158  35.1  26.0  69.3   29.53    39
2016-12-04 08:00   7.8   9.7   151  34.9  25.9  69.3   29.55     3
2016-12-04 07:00   7.6  10.5   156  34.7  26.7  72.3   29.55     2
2016-12-04 06:00   6.0   8.0   138  34.5  27.7  76.0   29.55     2
2016-12-04 05:00   3.5   6.4   118  34.7  28.5  77.7   29.58     2
2016-12-04 04:00   7.8   9.5   132  34.5  28.1  77.1   29.60     2
2016-12-04 03:00   6.2   7.8   128  34.7  27.9  76.0   29.61     2
2016-12-04 02:00   4.3   5.6   136  34.7  27.4  74.4   29.62     2
2016-12-04 01:00   4.7   6.6    99  34.7  26.8  72.5   29.62     2
2016-12-04 00:00   4.9   5.8   109  34.9  26.6  71.5   29.63     2
2016-12-03 23:00   2.7   3.5    97  35.1  27.4  73.3   29.63     2
2016-12-03 22:00   1.4   1.7    49  35.1  26.4  70.5   29.64     2
2016-12-03 21:00   1.7   2.7   229  35.8  25.0  64.6   29.64     2
2016-12-03 20:00   8.2   9.7   263  36.3  26.9  68.4   29.65     2
2016-12-03 19:00   6.4   8.2   324  35.8  27.7  72.3   29.66     2
2016-12-03 18:00   7.2   9.7   274  35.8  27.5  71.6   29.67     2
2016-12-03 17:00   4.3   8.2   302  35.6  26.9  70.3   29.67     6
2016-12-03 16:00   7.4   8.4   292  35.6  27.4  71.9   29.67    32
2016-12-03 15:00   9.9  12.2   280  35.8  27.8  72.5   29.67    71
2016-12-03 14:00   8.2   9.9   283  35.4  26.9  70.8   29.67   133
2016-12-03 13:00   6.4   7.8   257  35.2  26.6  70.4   29.65   167
2016-12-03 12:00   6.4   8.4   340  35.1  26.5  70.8   29.66   134
2016-12-03 11:00   8.7  10.9   302  35.6  28.0  73.7   29.68    86
2016-12-03 10:00  11.7  13.6   292  36.0  29.1  75.9   29.68    48
2016-12-03 09:00  11.1  14.0   300  36.3  29.2  75.2   29.68    17
2016-12-03 08:00   8.9  10.1   269  36.3  28.6  73.3   29.68     3
2016-12-03 07:00   8.6   9.7   294  36.3  29.2  75.0   29.67     2
2016-12-03 06:00   9.9  12.1   301  36.3  29.3  75.5   29.66     2
2016-12-03 05:00   6.4   8.7   300  36.1  28.6  73.9   29.65     2
2016-12-03 04:00   6.6   9.3   325  36.3  29.6  76.3   29.64     2
2016-12-03 03:00   9.1  11.5   300  36.5  29.6  75.9   29.64     2
2016-12-03 02:00   6.2   8.0   285  36.9  29.4  74.2   29.64     2
2016-12-03 01:00   8.7  10.7   280  37.4  30.3  75.4   29.64     2
2016-12-03 00:00  11.9  14.2   309  37.4  30.1  74.6   29.64     2
2016-12-02 23:00  10.7  13.8   295  37.6  30.4  74.9   29.64     2
2016-12-02 22:00   6.6   9.3   326  37.2  29.1  72.2   29.63     2
2016-12-02 21:00   8.7  10.7   313  37.2  29.6  73.7   29.62     2
2016-12-02 20:00  12.2  15.2   320  37.0  29.4  73.6   29.62     2
2016-12-02 19:00  13.6  16.1   311  37.0  29.1  72.7   29.60     2